createdAt,value
2018-11-25T00:00:16.494Z,93127.00
2018-11-25T00:02:43.968Z,93125.32
2018-11-25T00:05:11.404Z,93127.43
2018-11-25T00:07:38.783Z,93122.80
2018-11-25T00:10:06.653Z,93125.75
2018-11-25T00:12:34.128Z,93123.67
2018-11-25T00:15:01.518Z,93120.31
2018-11-25T00:17:28.965Z,93117.39
2018-11-25T00:19:56.379Z,93117.39
2018-11-25T00:22:23.762Z,93122.41
2018-11-25T00:24:51.164Z,93116.95
2018-11-25T00:27:18.606Z,93111.53
2018-11-25T00:29:46.015Z,93109.00
2018-11-25T00:32:13.405Z,93109.83
2018-11-25T00:34:40.844Z,93108.16
2018-11-25T00:37:08.211Z,93106.91
2018-11-25T00:39:35.624Z,93104.39
2018-11-25T00:42:03.030Z,93102.30
2018-11-25T00:44:30.439Z,93107.31
2018-11-25T00:46:57.859Z,93102.73
2018-11-25T00:49:25.274Z,93090.98
2018-11-25T00:51:52.701Z,93099.36
2018-11-25T00:54:20.095Z,93095.61
2018-11-25T00:56:47.506Z,93093.09
2018-11-25T00:59:14.936Z,93091.00
2018-11-25T01:01:42.410Z,93092.23
2018-11-25T01:04:09.830Z,93092.67
2018-11-25T01:06:37.255Z,93091.84
2018-11-25T01:09:07.339Z,93091.83
2018-11-25T01:11:34.790Z,93087.22
2018-11-25T01:14:02.176Z,93077.17
2018-11-25T01:16:29.589Z,93078.42
2018-11-25T01:18:57.019Z,93079.69
2018-11-25T01:21:24.455Z,93076.75
2018-11-25T01:23:51.925Z,93076.74
2018-11-25T01:26:19.371Z,93084.69
2018-11-25T01:28:46.776Z,93083.02
2018-11-25T01:31:14.203Z,93087.20
2018-11-25T01:33:41.605Z,93079.25
2018-11-25T01:36:09.029Z,93079.25
2018-11-25T01:38:36.411Z,93070.89
2018-11-25T01:41:03.848Z,93070.47
2018-11-25T01:43:31.250Z,93076.33
2018-11-25T01:45:58.630Z,93073.40
2018-11-25T01:48:26.036Z,93070.45
2018-11-25T01:50:53.407Z,93068.36
2018-11-25T01:53:20.895Z,93067.11
2018-11-25T01:55:48.312Z,93064.59
2018-11-25T01:58:15.757Z,93063.34
2018-11-25T02:00:43.190Z,93061.25
2018-11-25T02:03:10.624Z,93058.30
2018-11-25T02:05:38.000Z,93062.52
2018-11-25T02:08:05.516Z,93063.33
2018-11-25T02:10:32.916Z,93054.13
2018-11-25T02:13:00.342Z,93049.11
2018-11-25T02:15:27.740Z,93044.50
2018-11-25T02:17:55.142Z,93046.57
2018-11-25T02:20:23.488Z,93044.09
2018-11-25T02:22:52.715Z,93032.76
2018-11-25T02:25:20.090Z,93031.94
2018-11-25T02:27:47.507Z,93031.09
2018-11-25T02:30:15.757Z,93030.66
2018-11-25T02:32:43.215Z,93024.80
2018-11-25T02:35:11.412Z,93025.23
2018-11-25T02:37:38.808Z,93020.20
2018-11-25T02:40:10.373Z,93018.52
2018-11-25T02:42:37.779Z,93013.08
2018-11-25T02:45:08.279Z,93004.70
2018-11-25T02:47:35.698Z,93003.45
2018-11-25T02:50:03.461Z,92997.17
2018-11-25T02:52:30.877Z,93000.12
2018-11-25T02:54:58.308Z,92990.46
2018-11-25T02:57:25.726Z,92989.65
2018-11-25T02:59:53.161Z,92987.97
2018-11-25T03:02:20.746Z,92987.53
2018-11-25T03:04:48.132Z,92977.07
2018-11-25T03:07:15.584Z,92976.23
2018-11-25T03:09:43.821Z,92976.67
2018-11-25T03:12:11.275Z,92976.67
2018-11-25T03:14:38.666Z,92974.15
2018-11-25T03:17:06.080Z,92972.89
2018-11-25T03:19:33.564Z,92965.36
2018-11-25T03:22:01.016Z,92958.67
2018-11-25T03:24:28.440Z,92967.02
2018-11-25T03:26:55.861Z,92956.97
2018-11-25T03:29:23.286Z,92963.68
2018-11-25T03:31:50.726Z,92961.61
2018-11-25T03:34:18.098Z,92958.24
2018-11-25T03:36:45.522Z,92955.73
2018-11-25T03:39:12.893Z,92951.55
2018-11-25T03:41:40.310Z,92957.82
2018-11-25T03:44:07.662Z,92953.63
2018-11-25T03:46:35.072Z,92957.82
2018-11-25T03:49:02.496Z,92957.42
2018-11-25T03:51:29.871Z,92946.53
2018-11-25T03:53:57.332Z,92946.11
2018-11-25T03:56:24.728Z,92942.34
2018-11-25T03:58:52.151Z,92941.93
2018-11-25T04:01:19.536Z,92946.12
2018-11-25T04:03:46.946Z,92942.78
2018-11-25T04:06:14.366Z,92938.59
2018-11-25T04:08:41.791Z,92942.35
2018-11-25T04:11:09.202Z,92943.61
2018-11-25T04:13:36.643Z,92934.39
2018-11-25T04:16:04.313Z,92934.41
2018-11-25T04:18:31.722Z,92932.70
2018-11-25T04:20:59.138Z,92930.63
2018-11-25T04:23:26.521Z,92926.03
2018-11-25T04:25:53.955Z,92927.70
2018-11-25T04:28:21.331Z,92925.60
2018-11-25T04:30:48.776Z,92925.17
2018-11-25T04:33:16.132Z,92918.50
2018-11-25T04:35:43.606Z,92921.83
2018-11-25T04:38:10.945Z,92918.92
2018-11-25T04:40:38.353Z,92915.15
2018-11-25T04:43:05.796Z,92905.92
2018-11-25T04:45:33.271Z,92908.03
2018-11-25T04:48:00.695Z,92903.84
2018-11-25T04:50:28.118Z,92902.14
2018-11-25T04:52:55.522Z,92895.05
2018-11-25T04:55:22.901Z,92900.48
2018-11-25T04:57:51.045Z,92898.39
2018-11-25T05:00:18.898Z,92897.15
2018-11-25T05:02:46.327Z,92898.41
2018-11-25T05:05:14.512Z,92898.41
2018-11-25T05:07:41.968Z,92895.07
2018-11-25T05:10:12.339Z,92900.92
2018-11-25T05:12:39.811Z,92905.09
2018-11-25T05:15:11.764Z,92905.92
2018-11-25T05:17:39.224Z,92900.48
2018-11-25T05:20:08.403Z,92894.61
2018-11-25T05:22:35.834Z,92890.41
2018-11-25T05:25:03.276Z,92886.64
2018-11-25T05:27:30.692Z,92892.94
2018-11-25T05:29:58.092Z,92886.64
2018-11-25T05:32:25.523Z,92885.38
2018-11-25T05:34:52.948Z,92891.23
2018-11-25T05:37:20.327Z,92888.32
2018-11-25T05:39:47.758Z,92889.58
2018-11-25T05:42:15.122Z,92884.98
2018-11-25T05:44:42.541Z,92886.26
2018-11-25T05:47:09.961Z,92887.09
2018-11-25T05:49:37.379Z,92882.89
2018-11-25T05:52:05.069Z,92882.48
2018-11-25T05:54:32.496Z,92876.19
2018-11-25T05:56:59.876Z,92874.93
2018-11-25T05:59:27.295Z,92869.51
2018-11-25T06:01:54.713Z,92863.24
2018-11-25T06:04:22.172Z,92855.70
2018-11-25T06:06:49.533Z,92863.24
2018-11-25T06:09:16.958Z,92864.06
2018-11-25T06:11:44.363Z,92859.89
2018-11-25T06:14:11.827Z,92864.48
2018-11-25T06:16:39.237Z,92859.47
2018-11-25T06:19:06.636Z,92864.88
2018-11-25T06:21:34.032Z,92856.95
2018-11-25T06:24:01.446Z,92858.20
2018-11-25T06:26:28.887Z,92861.96
2018-11-25T06:28:56.288Z,92859.42
2018-11-25T06:31:23.716Z,92857.75
2018-11-25T06:33:51.413Z,92863.59
2018-11-25T06:36:18.812Z,92861.92
2018-11-25T06:38:46.208Z,92858.58
2018-11-25T06:41:13.629Z,92861.52
2018-11-25T06:43:41.022Z,92853.56
2018-11-25T06:46:10.230Z,92857.70
2018-11-25T06:48:37.659Z,92861.47
2018-11-25T06:51:05.498Z,92857.30
2018-11-25T06:53:32.930Z,92856.48
2018-11-25T06:56:00.333Z,92853.54
2018-11-25T06:58:27.727Z,92848.14
2018-11-25T07:00:55.140Z,92843.15
2018-11-25T07:03:22.542Z,92847.37
2018-11-25T07:05:49.961Z,92846.95
2018-11-25T07:08:17.336Z,92851.13
2018-11-25T07:10:44.781Z,92849.03
2018-11-25T07:13:12.213Z,92841.52
2018-11-25T07:15:39.617Z,92835.66
2018-11-25T07:18:07.071Z,92846.12
2018-11-25T07:20:34.506Z,92837.33
2018-11-25T07:23:01.982Z,92834.39
2018-11-25T07:25:29.370Z,92839.83
2018-11-25T07:27:56.774Z,92834.81
2018-11-25T07:30:25.199Z,92833.14
2018-11-25T07:32:52.708Z,92830.64
2018-11-25T07:35:20.342Z,92840.27
2018-11-25T07:37:47.789Z,92833.57
2018-11-25T07:40:16.357Z,92833.59
2018-11-25T07:42:43.797Z,92828.98
2018-11-25T07:45:13.299Z,92829.00
2018-11-25T07:47:40.692Z,92820.62
2018-11-25T07:50:09.355Z,92823.13
2018-11-25T07:52:36.916Z,92822.30
2018-11-25T07:55:07.275Z,92816.86
2018-11-25T07:57:34.713Z,92813.94
2018-11-25T08:00:02.097Z,92818.09
2018-11-25T08:02:29.538Z,92813.50
2018-11-25T08:04:56.945Z,92815.20
2018-11-25T08:07:24.339Z,92816.86
2018-11-25T08:09:51.752Z,92801.38
2018-11-25T08:12:19.193Z,92796.77
2018-11-25T08:14:46.629Z,92802.60
2018-11-25T08:17:14.032Z,92791.30
2018-11-25T08:19:41.481Z,92792.14
2018-11-25T08:22:08.947Z,92786.66
2018-11-25T08:24:36.408Z,92779.09
2018-11-25T08:27:03.903Z,92780.77
2018-11-25T08:29:31.315Z,92778.23
2018-11-25T08:31:58.707Z,92772.34
2018-11-25T08:34:26.162Z,92765.14
2018-11-25T08:36:53.612Z,92760.48
2018-11-25T08:39:21.058Z,92761.28
2018-11-25T08:41:48.472Z,92755.77
2018-11-25T08:44:15.882Z,92752.33
2018-11-25T08:46:43.317Z,92744.72
2018-11-25T08:49:10.685Z,92742.11
2018-11-25T08:51:38.118Z,92735.73
2018-11-25T08:54:05.562Z,92734.33
2018-11-25T08:56:33.008Z,92726.19
2018-11-25T08:59:00.436Z,92714.72
2018-11-25T09:01:27.877Z,92714.96
2018-11-25T09:03:55.314Z,92712.83
2018-11-25T09:06:22.749Z,92709.16
2018-11-25T09:08:50.193Z,92697.52
2018-11-25T09:11:17.649Z,92698.92
2018-11-25T09:13:45.055Z,92692.40
2018-11-25T09:16:12.489Z,92686.63
2018-11-25T09:18:39.912Z,92685.03
2018-11-25T09:21:07.347Z,92684.73
2018-11-25T09:23:34.765Z,92683.59
2018-11-25T09:26:02.183Z,92678.20
2018-11-25T09:28:29.605Z,92671.42
2018-11-25T09:30:57.025Z,92664.34
2018-11-25T09:33:24.437Z,92666.48
2018-11-25T09:35:51.884Z,92663.84
2018-11-25T09:38:19.323Z,92666.83
2018-11-25T09:40:46.748Z,92661.86
2018-11-25T09:43:14.168Z,92663.75
2018-11-25T09:45:41.588Z,92669.39
2018-11-25T09:48:09.007Z,92662.30
2018-11-25T09:50:36.422Z,92655.08
2018-11-25T09:53:03.877Z,92657.75
2018-11-25T09:55:31.300Z,92647.53
2018-11-25T09:57:59.929Z,92643.97
2018-11-25T10:00:30.470Z,92644.09
2018-11-25T10:02:57.933Z,92637.33
2018-11-25T10:05:25.331Z,92630.39
2018-11-25T10:07:52.712Z,92623.84
2018-11-25T10:10:21.974Z,92627.59
2018-11-25T10:12:49.436Z,92618.57
2018-11-25T10:15:18.758Z,92614.44
2018-11-25T10:17:46.201Z,92616.03
2018-11-25T10:20:20.737Z,92614.11
2018-11-25T10:22:48.157Z,92607.53
2018-11-25T10:25:16.224Z,92609.50
2018-11-25T10:27:43.645Z,92598.54
2018-11-25T10:30:14.183Z,92596.41
2018-11-25T10:32:42.400Z,92584.55
2018-11-25T10:35:09.423Z,92584.74
2018-11-25T10:37:36.898Z,92583.36
2018-11-25T10:40:11.149Z,92578.26
2018-11-25T10:42:38.652Z,92576.39
2018-11-25T10:45:13.329Z,92567.56
2018-11-25T10:47:40.771Z,92566.29
2018-11-25T10:50:10.069Z,92566.41
2018-11-25T10:52:37.502Z,92571.83
2018-11-25T10:55:06.203Z,92567.75
2018-11-25T10:57:33.652Z,92563.63
2018-11-25T11:00:01.119Z,92563.18
2018-11-25T11:02:33.995Z,92563.41
2018-11-25T11:05:05.013Z,92552.39
2018-11-25T11:07:38.977Z,92549.55
2018-11-25T11:10:07.985Z,92543.32
2018-11-25T11:12:35.564Z,92541.32
2018-11-25T11:15:03.669Z,92537.95
2018-11-25T11:17:31.070Z,92542.38
2018-11-25T11:19:58.562Z,92539.45
2018-11-25T11:22:25.974Z,92533.02
2018-11-25T11:24:53.376Z,92530.19
2018-11-25T11:27:20.761Z,92536.50
2018-11-25T11:29:48.175Z,92525.06
2018-11-25T11:32:15.639Z,92520.90
2018-11-25T11:34:43.043Z,92518.39
2018-11-25T11:37:10.463Z,92514.88
2018-11-25T11:39:37.862Z,92513.09
2018-11-25T11:42:05.740Z,92510.70
2018-11-25T11:44:33.177Z,92508.70
2018-11-25T11:47:00.622Z,92513.35
2018-11-25T11:49:28.152Z,92509.05
2018-11-25T11:51:55.624Z,92503.83
2018-11-25T11:54:23.116Z,92500.85
2018-11-25T11:56:50.511Z,92504.52
2018-11-25T11:59:17.981Z,92496.31
2018-11-25T12:01:45.434Z,92501.08
2018-11-25T12:04:12.885Z,92508.73
2018-11-25T12:06:40.284Z,92501.72
2018-11-25T12:09:09.203Z,92503.27
2018-11-25T12:11:36.642Z,92506.19
2018-11-25T12:14:04.589Z,92499.08
2018-11-25T12:16:32.108Z,92503.75
2018-11-25T12:18:59.597Z,92498.41
2018-11-25T12:21:27.048Z,92497.02
2018-11-25T12:23:54.583Z,92496.09
2018-11-25T12:26:25.335Z,92496.99
2018-11-25T12:28:52.953Z,92496.31
2018-11-25T12:31:20.405Z,92493.11
2018-11-25T12:33:47.923Z,92490.84
2018-11-25T12:36:15.479Z,92500.05
2018-11-25T12:38:42.920Z,92487.59
2018-11-25T12:41:10.408Z,92484.53
2018-11-25T12:43:37.847Z,92479.51
2018-11-25T12:46:05.338Z,92479.09
2018-11-25T12:48:32.809Z,92475.07
2018-11-25T12:51:00.295Z,92468.23
2018-11-25T12:53:27.723Z,92467.19
2018-11-25T12:55:55.139Z,92459.66
2018-11-25T12:58:22.595Z,92458.09
2018-11-25T13:00:50.079Z,92459.94
2018-11-25T13:03:17.530Z,92458.95
2018-11-25T13:05:46.188Z,92448.77
2018-11-25T13:08:13.275Z,92446.73
2018-11-25T13:10:40.815Z,92436.10
2018-11-25T13:13:09.394Z,92435.67
2018-11-25T13:15:36.816Z,92419.03
2018-11-25T13:18:04.542Z,92420.66
2018-11-25T13:20:31.977Z,92417.32
2018-11-25T13:22:59.392Z,92420.70
2018-11-25T13:25:26.823Z,92420.56
2018-11-25T13:27:54.254Z,92418.44
2018-11-25T13:30:26.818Z,92418.16
2018-11-25T13:32:55.610Z,92420.47
2018-11-25T13:35:23.533Z,92414.11
2018-11-25T13:37:51.077Z,92412.22
2018-11-25T13:40:18.529Z,92407.47
2018-11-25T13:42:46.013Z,92406.88
2018-11-25T13:45:13.475Z,92413.27
2018-11-25T13:47:41.014Z,92420.66
2018-11-25T13:50:09.547Z,92412.42
2018-11-25T13:52:36.975Z,92407.98
2018-11-25T13:55:08.899Z,92410.73
2018-11-25T13:57:36.342Z,92412.86
2018-11-25T14:00:06.521Z,92404.78
2018-11-25T14:02:33.981Z,92403.89
2018-11-25T14:05:01.350Z,92406.00
2018-11-25T14:07:28.762Z,92405.79
2018-11-25T14:09:56.229Z,92408.61
2018-11-25T14:12:23.694Z,92411.51
2018-11-25T14:14:51.189Z,92413.41
2018-11-25T14:17:18.624Z,92408.22
2018-11-25T14:19:46.126Z,92408.70
2018-11-25T14:22:13.594Z,92405.84
2018-11-25T14:24:41.046Z,92415.84
2018-11-25T14:27:09.354Z,92414.80
2018-11-25T14:29:36.887Z,92420.85
2018-11-25T14:32:04.601Z,92422.66
2018-11-25T14:34:32.026Z,92429.61
2018-11-25T14:36:59.458Z,92427.45
2018-11-25T14:39:26.917Z,92427.35
2018-11-25T14:41:54.366Z,92430.34
2018-11-25T14:44:21.821Z,92425.28
2018-11-25T14:46:49.263Z,92434.26
2018-11-25T14:49:16.692Z,92433.96
2018-11-25T14:51:44.186Z,92436.31
2018-11-25T14:54:11.664Z,92437.76
2018-11-25T14:56:39.150Z,92439.95
2018-11-25T14:59:06.613Z,92443.13
2018-11-25T15:01:34.118Z,92439.97
2018-11-25T15:04:01.578Z,92448.59
2018-11-25T15:06:29.404Z,92456.96
2018-11-25T15:08:56.445Z,92461.87
2018-11-25T15:11:23.860Z,92457.91
2018-11-25T15:13:51.340Z,92463.55
2018-11-25T15:16:18.773Z,92460.64
2018-11-25T15:18:46.226Z,92464.14
2018-11-25T15:21:13.831Z,92466.09
2018-11-25T15:23:41.623Z,92468.70
2018-11-25T15:26:11.272Z,92476.09
2018-11-25T15:28:38.723Z,92472.58
2018-11-25T15:31:06.185Z,92478.00
2018-11-25T15:33:33.984Z,92476.83
2018-11-25T15:36:01.460Z,92478.17
2018-11-25T15:38:28.914Z,92476.16
2018-11-25T15:40:57.314Z,92480.80
2018-11-25T15:43:23.833Z,92479.83
2018-11-25T15:45:51.299Z,92473.55
2018-11-25T15:48:20.487Z,92474.07
2018-11-25T15:50:47.961Z,92473.50
2018-11-25T15:53:15.438Z,92471.03
2018-11-25T15:55:43.994Z,92468.23
2018-11-25T15:58:11.496Z,92464.09
2018-11-25T16:00:39.039Z,92464.54
2018-11-25T16:03:07.800Z,92463.16
2018-11-25T16:05:35.498Z,92466.85
2018-11-25T16:08:04.423Z,92461.05
2018-11-25T16:10:30.594Z,92456.14
2018-11-25T16:12:58.120Z,92468.17
2018-11-25T16:15:26.819Z,92468.56
2018-11-25T16:17:54.300Z,92468.26
2018-11-25T16:20:23.075Z,92466.39
2018-11-25T16:22:53.053Z,92466.08
2018-11-25T16:25:23.539Z,92469.14
2018-11-25T16:27:53.198Z,92464.52
2018-11-25T16:30:20.641Z,92469.98
2018-11-25T16:32:48.082Z,92464.02
2018-11-25T16:35:15.518Z,92465.12
2018-11-25T16:37:43.044Z,92459.94
2018-11-25T16:40:13.887Z,92459.01
2018-11-25T16:42:41.403Z,92461.41
2018-11-25T16:45:12.169Z,92457.38
2018-11-25T16:47:39.689Z,92450.14
2018-11-25T16:50:09.038Z,92453.86
2018-11-25T16:52:36.537Z,92447.86
2018-11-25T16:55:05.394Z,92446.95
2018-11-25T16:57:32.854Z,92445.22
2018-11-25T17:00:00.301Z,92439.27
2018-11-25T17:02:27.803Z,92443.81
2018-11-25T17:04:55.251Z,92436.34
2018-11-25T17:07:22.683Z,92439.77
2018-11-25T17:09:50.161Z,92440.95
2018-11-25T17:12:17.591Z,92446.13
2018-11-25T17:14:45.121Z,92448.43
2018-11-25T17:17:12.599Z,92453.94
2018-11-25T17:19:40.053Z,92456.83
2018-11-25T17:22:07.504Z,92449.12
2018-11-25T17:24:34.993Z,92454.57
2018-11-25T17:27:02.456Z,92455.01
2018-11-25T17:29:29.956Z,92455.01
2018-11-25T17:31:57.382Z,92454.66
2018-11-25T17:34:24.890Z,92449.45
2018-11-25T17:36:52.329Z,92441.08
2018-11-25T17:39:19.811Z,92441.55
2018-11-25T17:41:47.250Z,92437.66
2018-11-25T17:44:14.712Z,92440.36
2018-11-25T17:46:42.235Z,92440.42
2018-11-25T17:49:09.677Z,92440.83
2018-11-25T17:51:37.125Z,92438.27
2018-11-25T17:54:04.849Z,92443.89
2018-11-25T17:56:32.273Z,92435.11
2018-11-25T17:58:59.795Z,92435.00
2018-11-25T18:01:27.240Z,92432.84
2018-11-25T18:03:54.720Z,92432.38
2018-11-25T18:06:22.186Z,92441.36
2018-11-25T18:08:49.629Z,92430.91
2018-11-25T18:11:17.095Z,92436.80
2018-11-25T18:13:44.669Z,92438.58
2018-11-25T18:16:12.243Z,92431.67
2018-11-25T18:18:44.713Z,92434.27
2018-11-25T18:21:14.401Z,92426.33
2018-11-25T18:23:41.873Z,92431.31
2018-11-25T18:26:09.304Z,92425.31
2018-11-25T18:28:36.799Z,92422.78
2018-11-25T18:31:04.958Z,92411.91
2018-11-25T18:33:32.442Z,92420.57
2018-11-25T18:35:59.882Z,92421.53
2018-11-25T18:38:27.451Z,92421.98
2018-11-25T18:40:54.866Z,92427.95
2018-11-25T18:43:22.351Z,92425.50
2018-11-25T18:45:49.787Z,92428.02
2018-11-25T18:48:17.740Z,92431.81
2018-11-25T18:50:45.191Z,92430.11
2018-11-25T18:53:12.921Z,92428.31
2018-11-25T18:55:39.233Z,92420.48
2018-11-25T18:58:06.831Z,92420.54
2018-11-25T19:01:12.219Z,92419.63
2018-11-25T19:03:39.715Z,92418.83
2018-11-25T19:06:07.142Z,92414.03
2018-11-25T19:08:34.608Z,92409.87
2018-11-25T19:11:02.105Z,92405.11
2018-11-25T19:13:29.661Z,92403.02
2018-11-25T19:15:57.205Z,92395.95
2018-11-25T19:18:24.723Z,92397.52
2018-11-25T19:20:52.312Z,92393.71
2018-11-25T19:23:19.761Z,92395.03
2018-11-25T19:25:47.221Z,92396.69
2018-11-25T19:28:14.697Z,92389.80
2018-11-25T19:30:42.246Z,92390.70
2018-11-25T19:33:09.982Z,92384.52
2018-11-25T19:35:38.128Z,92391.63
2018-11-25T19:38:05.865Z,92389.97
2018-11-25T19:40:33.363Z,92392.80
2018-11-25T19:43:00.834Z,92391.97
2018-11-25T19:45:28.372Z,92386.91
2018-11-25T19:47:56.617Z,92395.33
2018-11-25T19:50:26.564Z,92393.24
2018-11-25T19:52:54.053Z,92396.13
2018-11-25T19:55:21.821Z,92400.66
2018-11-25T19:57:49.141Z,92399.78
2018-11-25T20:00:19.125Z,92396.42
2018-11-25T20:02:46.630Z,92395.42
2018-11-25T20:05:14.261Z,92403.25
2018-11-25T20:07:42.547Z,92393.56
2018-11-25T20:10:15.109Z,92394.98
2018-11-25T20:12:44.400Z,92388.29
2018-11-25T20:15:13.102Z,92393.33
2018-11-25T20:17:40.662Z,92388.00
2018-11-25T20:20:12.505Z,92386.82
2018-11-25T20:22:40.053Z,92384.73
2018-11-25T20:25:14.794Z,92382.13
2018-11-25T20:27:44.267Z,92380.84
2018-11-25T20:30:14.858Z,92382.52
2018-11-25T20:32:47.951Z,92374.41
2018-11-25T20:35:15.510Z,92375.77
2018-11-25T20:37:48.556Z,92377.16
2018-11-25T20:40:15.986Z,92381.02
2018-11-25T20:42:43.476Z,92381.37
2018-11-25T20:45:17.659Z,92380.48
2018-11-25T20:47:45.342Z,92373.45
2018-11-25T20:50:12.887Z,92372.70
2018-11-25T20:52:45.886Z,92374.39
2018-11-25T20:55:14.540Z,92373.89
2018-11-25T20:57:42.071Z,92376.77
2018-11-25T21:00:15.061Z,92372.97
2018-11-25T21:02:41.772Z,92380.60
2018-11-25T21:05:10.967Z,92369.00
2018-11-25T21:07:38.510Z,92368.17
2018-11-25T21:10:09.147Z,92368.91
2018-11-25T21:12:36.772Z,92371.09
2018-11-25T21:15:04.891Z,92363.99
2018-11-25T21:17:32.436Z,92366.00
2018-11-25T21:20:00.081Z,92370.03
2018-11-25T21:22:27.535Z,92375.50
2018-11-25T21:24:55.020Z,92379.36
2018-11-25T21:27:22.478Z,92381.89
2018-11-25T21:29:49.937Z,92381.08
2018-11-25T21:32:17.358Z,92388.61
2018-11-25T21:34:45.016Z,92389.17
2018-11-25T21:37:12.540Z,92388.88
2018-11-25T21:39:39.997Z,92389.77
2018-11-25T21:42:07.738Z,92387.17
2018-11-25T21:44:35.181Z,92393.95
2018-11-25T21:47:03.087Z,92387.17
2018-11-25T21:49:30.868Z,92379.75
2018-11-25T21:51:58.309Z,92383.63
2018-11-25T21:54:25.955Z,92374.86
2018-11-25T21:56:53.396Z,92374.86
2018-11-25T21:59:21.127Z,92377.00
2018-11-25T22:01:48.732Z,92369.34
2018-11-25T22:04:16.222Z,92374.92
2018-11-25T22:06:43.651Z,92377.30
2018-11-25T22:09:11.099Z,92378.72
2018-11-25T22:11:38.473Z,92376.30
2018-11-25T22:14:05.973Z,92381.42
2018-11-25T22:16:33.388Z,92378.50
2018-11-25T22:19:00.800Z,92375.56
2018-11-25T22:21:28.197Z,92373.82
2018-11-25T22:23:55.686Z,92367.14
2018-11-25T22:26:23.087Z,92374.44
2018-11-25T22:28:50.497Z,92370.72
2018-11-25T22:31:18.008Z,92364.78
2018-11-25T22:33:45.443Z,92366.78
2018-11-25T22:36:12.836Z,92363.42
2018-11-25T22:38:40.296Z,92364.22
2018-11-25T22:41:08.342Z,92374.81
2018-11-25T22:43:36.383Z,92367.14
2018-11-25T22:46:04.217Z,92367.11
2018-11-25T22:48:31.688Z,92370.99
2018-11-25T22:50:59.151Z,92377.23
2018-11-25T22:53:26.558Z,92375.73
2018-11-25T22:55:54.452Z,92376.58
2018-11-25T22:58:21.848Z,92372.64
2018-11-25T23:00:52.027Z,92377.80
2018-11-25T23:03:19.830Z,92381.59
2018-11-25T23:05:58.472Z,92381.23
2018-11-25T23:08:25.915Z,92383.77
2018-11-25T23:10:54.270Z,92375.23
2018-11-25T23:13:21.827Z,92373.97
2018-11-25T23:15:49.316Z,92368.78
2018-11-25T23:18:16.682Z,92374.34
2018-11-25T23:20:44.258Z,92375.64
2018-11-25T23:23:11.695Z,92375.97
2018-11-25T23:25:39.132Z,92374.20
2018-11-25T23:28:06.567Z,92373.67
2018-11-25T23:30:34.016Z,92374.12
2018-11-25T23:33:01.439Z,92372.00
2018-11-25T23:35:30.875Z,92367.26
2018-11-25T23:37:57.349Z,92370.77
2018-11-25T23:40:24.813Z,92372.17
2018-11-25T23:42:52.215Z,92368.91
2018-11-25T23:45:19.631Z,92367.66
2018-11-25T23:47:47.036Z,92367.66
2018-11-25T23:50:14.837Z,92357.70
2018-11-25T23:52:43.383Z,92353.44
2018-11-25T23:55:11.801Z,92354.18
2018-11-25T23:57:39.585Z,92362.66
